Racecast

Cadence Alkire

Mandan (ND) · 10 · WDAND DA · Compare head to head

Athlete rating 110.1 2024 TF season
Best race 114.7 XC
Races 67
Seasons 6 2021 — 2026

RankedNation #21757·ND #197·Team #15 ?

Rating scale ?
Speed rating — all races

Cross Country

XC speed rating

2025 XC

Mandan (ND) · Grade 10

Date Meet Event Result Place Rating Difficulty PR/SR Flags
2025-08-29 Mandan Municipal 4000m 22:30.1 68th · 9th on team +0.012 ★PR ★CR SR CSR

2023 XC 107.1

Mandan (ND) · Grade 8

Date Meet Event Result Place Rating Difficulty PR/SR Flags
2023-10-18 McDowell Dam 3000m 14:13.3 65th · 9th on team 111.6 +0.001
2023-10-07 Minot Golf Course 3000m 13:25.6 16th · 2nd on team 114.7 -0.021 ★PR ★CR ★R SR CSR RSR
2023-09-30 McDowell Dam 3000m 14:07.4 17th · 1st on team 111.7 +0.001 PR ★CR R SR CSR RSR
2023-09-07 Mandan Municipal 2574m 14:46.3 38th · 6th on team 90.7 ★PR ★CR SR CSR
2023-09-01 McDowell Dam 2000m 9:07.2 20th · 2nd on team 110.4 +0.009 ★PR ★CR R SR CSR RSR
2023-08-26 Parkhurst Recreation Area 3000m 15:19 74th · 8th on team 103.6 +0.019 PR ★CR R SR CSR RSR

2021 XC 96.5

Mandan (ND) · Grade 6

Date Meet Event Result Place Rating Difficulty PR/SR Flags
2021-09-11 McDowell Dam 1609m 7:46.7 18th · 4th on team 96.5 -0.042 ★PR ★CR R SR CSR RSR

Track & Field

TF speed rating

2026 TF

Mandan (ND) · Grade 10

Date Meet Event Result Place Rating Difficulty PR/SR Flags
2026-05-23 2026 NDHSAA Class A & B State Meet 100m 12.99 27th · 4th on team -0.029
2026-05-15 NDHSAA West Region 100m 13.19 11th · 4th on team -0.014
2026-05-11 Mandan Last Chance 200m 28.27 11th · 5th on team -0.017
2026-05-08 Dickinson Pankratz & Carlson Invite 2026 100m 13.12 5th · 3rd on team -0.014
2026-05-01 Howard Wood Dakota Relays 100m 13.18 90th · 2nd on team -0.034
2026-04-28 BPS Girls Invite 100m 13.07 8th · 3rd on team -0.029
2026-04-28 BPS Girls Invite 200m 27.83 13th · 1st on team -0.029
2026-04-21 BPS River City Invite 200m 27.55 12th · 2nd on team -0.029 SR
2026-04-21 BPS River City Invite 100m 13.22 10th · 1st on team -0.029
2026-04-16 Mandan Kiwanis Invite 100m 12.9 7th · 3rd on team -0.017 ★PR SR
2026-04-11 Dickinson Coca-Cola Invitational 2026 100m 13.28 4th · 1st on team -0.014 SR
2026-04-11 Dickinson Coca-Cola Invitational 2026 200m 28.5 12th · 2nd on team -0.014 SR
2026-03-30 Mandan Invitational 200m 28.92 11th · 2nd on team -0.017 SR
2026-03-27 North Dakota State Class A Indoor 60m 8.66 43rd · 6th on team -0.036
2026-03-27 North Dakota State Class A Indoor 200m 29.45 37th · 4th on team -0.036 SR
2026-03-19 WDA Indoor Invite - Girls 60m 8.59 16th · 4th on team -0.032 ★PR SR
2026-03-19 WDA Indoor Invite - Girls 200m 29.89 9th · 4th on team -0.032 SR

2025 TF 108.2

Mandan (ND) · Grade 9

Date Meet Event Result Place Rating Difficulty PR/SR Flags
2025-05-22 2025 NDHSAA Class A & B State Meet 100m 13.3 46th · 4th on team -0.029
2025-05-17 NDHSAA West Region 100m 13.32 21st · 4th on team -0.029
2025-05-17 NDHSAA West Region 200m 27.57 14th · 3rd on team -0.029
2025-05-12 Last Chance Meet 200m 27.65 9th · 2nd on team -0.014
2025-05-09 Minot Girls 200m 27.83 15th · 2nd on team -0.022
2025-05-09 Minot Girls 400m 1:07.54 21st · 6th on team -0.022 ★PR SR
2025-05-06 Shannon Gangl Memorial Invitational 100m 12.96 6th · 3rd on team -0.017 PR SR
2025-05-06 Shannon Gangl Memorial Invitational 200m 27.38 10th · 3rd on team -0.017 ★PR SR
2025-04-29 BPS All-City Outdoor 800m 2:50.86 17th · 3rd on team 108.1 -0.029
2025-04-29 BPS All-City Outdoor 100m 13.26 11th · 1st on team -0.029 PR SR
2025-04-24 MINOT unlimited INVITE 100m 13.87 11th · 3rd on team -0.022 SR
2025-04-24 MINOT unlimited INVITE 200m 28.32 12th · 3rd on team -0.022 SR
2025-04-22 BPS Distance/Relay Carnival 800m 2:46.6 31st · 2nd on team 111.4 -0.029 ★PR SR RSR
2025-04-15 BPS Girls Invite 400m 1:08.75 6th · 1st on team -0.029 PR SR
2025-04-15 BPS Girls Invite 200m 29.77 12th · 1st on team -0.029 SR
2025-04-12 Dickinson High JV/V Invite 400m 1:11.65 6th · 1st on team -0.014
2025-03-28 North Dakota State Class A Indoor 400m 1:10.83 30th · 5th on team -0.036 PR SR
2025-03-18 WDA Indoor Invite - Girls 800m 2:57.03 20th · 2nd on team 105.0 -0.032 PR SR RSR
2025-03-18 WDA Indoor Invite - Girls 60m 8.96 13th · 4th on team -0.032 PR SR

2024 TF 110.1

Mandan (ND) · Grade 8

Date Meet Event Result Place Rating Difficulty PR/SR Flags
2024-05-17 West Region 200m 28.3 24th · 4th on team -0.014 PR SR
2024-05-13 Last Chance WDA 100m 13.51 14th · 3rd on team -0.017 PR SR
2024-05-13 Last Chance WDA 200m 28.79 22nd · 8th on team -0.017
2024-05-11 Mandan Kiwanis Girls Track Invitational 100m 13.86 23rd · 2nd on team -0.017 SR
2024-05-11 Mandan Kiwanis Girls Track Invitational 400m 1:13.06 8th · 3rd on team -0.017 PR SR
2024-05-11 Mandan Kiwanis Girls Track Invitational 200m 28.51 18th · 3rd on team -0.017 PR SR
2024-05-07 Blue Jay True Team Invitational 800m 3:06.17 13th · 3rd on team 110.1 -0.021 PR SR RSR
2024-05-04 Watford City Invite 100m 13.99 16th · 5th on team -0.015 SR
2024-05-04 Watford City Invite 200m 28.76 10th · 5th on team -0.015 PR SR
2024-03-26 WDA Indoor Invite - GIRLS 60mh 12.55 16th · 5th on team -0.032 ★PR SR

2023 TF

Mandan (ND) · Grade 7

Date Meet Event Result Place Rating Difficulty PR/SR Flags
2023-05-19 West Region Meet 100m 13.9 21st · 3rd on team -0.029
2023-05-15 GIRLS WDA LAST CHANCE 100m 13.62 19th · 1st on team -0.022 PR SR
2023-05-15 GIRLS WDA LAST CHANCE 200m 28.97 32nd · 7th on team -0.022 PR SR
2023-05-01 Dickinson Middle School Girls Meet 100mh 18.78 2nd · 2nd on team -0.014 ★PR SR
2023-05-01 Dickinson Middle School Girls Meet 200mh 33.7 2nd · 2nd on team -0.014 ★PR SR
2023-04-27 BPS Girls Invite 300mh 55.4 4th · 3rd on team -0.029 ★PR SR
2023-04-24 2023 Minot MS Majette Invite 100m 13.9 1st · 1st on team -0.022 PR SR
2023-04-24 2023 Minot MS Majette Invite 100mh 19.45 3rd · 3rd on team -0.022 PR SR
2023-04-24 2023 Minot MS Majette Invite 200mh 33.95 3rd · 2nd on team -0.022 PR SR
2023-04-24 2023 Minot MS Majette Invite 200m 30.82 8th · 4th on team -0.022 PR SR

2022 TF

Mandan (ND) · Grade 6

Date Meet Event Result Place Rating Difficulty PR/SR Flags
2022-05-03 Dickinson Middle School Girls Meet 400m 1:15.53 5th · 5th on team -0.014 PR SR
2022-05-03 Dickinson Middle School Girls Meet 200m 31.86 3rd · 3rd on team -0.014 PR SR
2022-05-03 Dickinson Middle School Girls Meet 100m 14.76 1st · 1st on team -0.014 PR SR